Time;durP1;ratioP1;P1;durP2;ratioP2;P2;SDS_P1;SDS_P2;PMS_P1;PMS_P2;Temp;Humidity;BMP_temperature;BMP_pressure;BME280_temperature;BME280_humidity;BME280_pressure;Samples;Min_cycle;Max_cycle;Signal;HPM_P1;HPM_P2
2022/03/12 00:02:24;;;;;;;27.25;15.82;;;2.90;67.80;;;;;;6136316;23;20452;-84
2022/03/12 00:05:14;;;;;;;31.45;16.05;;;2.80;69.60;;;;;;6089842;23;20037;-83
2022/03/12 00:08:04;;;;;;;29.70;16.15;;;2.80;70.20;;;;;;6089945;23;20414;-83
2022/03/12 00:10:54;;;;;;;28.65;15.98;;;2.70;70.30;;;;;;6090367;23;20406;-83
2022/03/12 00:13:43;;;;;;;27.20;16.27;;;2.70;70.10;;;;;;6090342;23;20465;-83
2022/03/12 00:16:37;;;;;;;30.17;16.02;;;2.80;70.70;;;;;;6092147;23;20030;-84
2022/03/12 00:19:24;;;;;;;27.80;16.77;;;2.80;71.00;;;;;;6091712;23;20105;-81
2022/03/12 00:22:12;;;;;;;33.42;16.92;;;2.80;71.30;;;;;;6091870;23;20038;-83
2022/03/12 00:25:04;;;;;;;28.42;16.08;;;2.80;72.10;;;;;;6090586;23;20022;-82
2022/03/12 00:27:52;;;;;;;29.07;16.80;;;2.70;72.50;;;;;;6091165;23;20267;-82
2022/03/12 00:30:41;;;;;;;30.05;16.13;;;2.70;70.90;;;;;;6092828;23;20279;-83
2022/03/12 00:33:29;;;;;;;25.80;14.98;;;2.70;71.80;;;;;;6091490;23;20038;-82
2022/03/12 00:36:17;;;;;;;28.83;16.05;;;2.70;70.40;;;;;;6090743;23;20026;-82
2022/03/12 00:39:11;;;;;;;31.05;17.17;;;2.60;69.70;;;;;;6090356;23;20192;-82
2022/03/12 00:41:58;;;;;;;28.13;16.27;;;2.60;70.40;;;;;;6091150;23;20042;-82
2022/03/12 00:44:45;;;;;;;32.08;17.05;;;2.70;69.80;;;;;;6089129;23;20022;-82
2022/03/12 00:47:35;;;;;;;28.80;16.58;;;2.70;70.90;;;;;;6089004;23;20164;-83
2022/03/12 00:50:22;;;;;;;35.08;16.70;;;2.80;70.90;;;;;;6090595;23;20121;-82
2022/03/12 00:53:09;;;;;;;29.33;15.85;;;2.80;72.00;;;;;;6092498;23;20027;-82
2022/03/12 00:55:57;;;;;;;26.30;16.67;;;2.70;72.00;;;;;;6089993;23;20094;-83
2022/03/12 00:58:47;;;;;;;31.10;17.70;;;2.70;71.40;;;;;;6089930;23;20096;-83
2022/03/12 01:01:34;;;;;;;39.20;18.98;;;2.70;71.80;;;;;;6134670;23;20062;-83
2022/03/12 01:04:22;;;;;;;38.55;19.58;;;2.70;72.90;;;;;;6201350;23;20030;-82
2022/03/12 01:07:11;;;;;;;37.88;21.17;;;2.70;73.80;;;;;;6242890;23;20025;-83
2022/03/12 01:10:01;;;;;;;41.58;21.65;;;2.60;73.80;;;;;;6244458;23;20042;-84
2022/03/12 01:12:48;;;;;;;33.47;18.50;;;2.60;74.30;;;;;;6243812;23;20079;-83
2022/03/12 01:15:38;;;;;;;33.70;17.77;;;2.60;72.90;;;;;;6242311;23;20154;-83
2022/03/12 01:18:26;;;;;;;31.40;18.05;;;2.70;71.10;;;;;;6245022;23;20064;-83
2022/03/12 01:21:16;;;;;;;35.20;17.70;;;2.90;70.40;;;;;;6223006;23;20419;-83
2022/03/12 01:24:04;;;;;;;28.25;16.88;;;3.00;69.50;;;;;;6243335;23;20119;-83
2022/03/12 01:26:51;;;;;;;34.85;16.02;;;3.10;68.90;;;;;;6244847;23;20129;-83
2022/03/12 01:29:39;;;;;;;29.45;15.80;;;3.20;68.80;;;;;;6244857;23;20055;-83
2022/03/12 01:32:26;;;;;;;27.65;15.57;;;3.30;67.30;;;;;;6243105;23;20118;-83
2022/03/12 01:35:16;;;;;;;30.60;15.43;;;3.40;66.80;;;;;;6221951;23;20032;-83
2022/03/12 01:38:06;;;;;;;30.13;15.02;;;3.40;67.30;;;;;;6218963;23;20036;-81
2022/03/12 01:40:54;;;;;;;24.77;14.75;;;3.40;67.90;;;;;;6242417;23;20450;-83
2022/03/12 01:43:43;;;;;;;27.70;15.73;;;3.40;67.30;;;;;;6223798;23;20380;-83
2022/03/12 01:46:46;;;;;;;26.42;15.48;;;3.50;67.40;;;;;;6245263;23;19916;-82
2022/03/12 01:49:34;;;;;;;29.83;15.13;;;3.50;67.40;;;;;;6243697;23;20317;-83
2022/03/12 01:52:25;;;;;;;27.88;15.23;;;3.60;67.00;;;;;;6242362;23;20131;-82
2022/03/12 01:55:13;;;;;;;27.70;15.07;;;3.50;67.00;;;;;;6218775;23;20032;-82
2022/03/12 01:58:05;;;;;;;25.38;15.02;;;3.50;66.70;;;;;;6245328;23;20036;-83
2022/03/12 02:00:57;;;;;;;31.35;16.58;;;3.50;66.80;;;;;;6241473;23;20036;-83
2022/03/12 02:03:46;;;;;;;28.27;15.40;;;3.40;66.70;;;;;;6220478;23;20096;-83
2022/03/12 02:06:34;;;;;;;28.95;14.98;;;3.40;66.80;;;;;;6241861;23;20117;-83
2022/03/12 02:09:23;;;;;;;27.42;15.63;;;3.30;65.70;;;;;;6243309;23;20039;-83
2022/03/12 02:12:11;;;;;;;37.00;19.83;;;3.30;65.70;;;;;;6243903;23;20078;-83
2022/03/12 02:15:01;;;;;;;36.25;18.58;;;3.10;29.60;;;;;;6221865;23;20671;-82
2022/03/12 02:17:50;;;;;;;28.05;16.10;;;2.80;7.60;;;;;;6244916;22;20086;-83
2022/03/12 02:20:38;;;;;;;29.95;15.93;;;2.80;1.00;;;;;;6243533;23;20319;-83
2022/03/12 02:23:26;;;;;;;29.50;15.82;;;2.80;1.00;;;;;;6243076;23;20123;-83
2022/03/12 02:26:13;;;;;;;31.10;16.45;;;2.90;1.00;;;;;;6219923;23;20036;-82
2022/03/12 02:29:01;;;;;;;30.30;15.05;;;2.90;1.00;;;;;;6244852;23;20025;-82
2022/03/12 02:31:51;;;;;;;26.40;14.88;;;2.90;1.00;;;;;;6240634;23;20274;-83
2022/03/12 02:34:48;;;;;;;32.10;15.52;;;3.00;1.00;;;;;;6243351;23;20082;-82
2022/03/12 02:37:42;;;;;;;27.00;15.25;;;2.90;1.00;;;;;;6243679;23;20343;-82
2022/03/12 02:40:41;;;;;;;23.42;15.00;;;2.90;1.00;;;;;;6245026;23;20304;-83
2022/03/12 02:43:28;;;;;;;28.52;16.55;;;2.90;1.00;;;;;;6245322;23;20436;-83
2022/03/12 02:46:21;;;;;;;33.83;16.80;;;2.90;1.00;;;;;;6246491;23;20089;-83
2022/03/12 02:49:08;;;;;;;38.90;17.15;;;2.80;1.00;;;;;;6246432;23;20023;-83
2022/03/12 02:51:55;;;;;;;31.67;15.10;;;2.80;1.00;;;;;;6223431;23;20032;-83
2022/03/12 02:54:44;;;;;;;37.05;17.02;;;2.70;1.50;;;;;;6223471;23;20035;-82
2022/03/12 02:57:31;;;;;;;29.48;16.17;;;2.60;14.90;;;;;;6245129;23;20024;-84
2022/03/12 03:00:20;;;;;;;32.80;16.15;;;2.60;17.70;;;;;;6220959;23;20090;-83
2022/03/12 03:03:08;;;;;;;29.60;16.75;;;2.50;22.00;;;;;;6098064;23;20088;-83
2022/03/12 03:06:01;;;;;;;30.08;16.45;;;2.50;32.20;;;;;;6091317;23;20130;-83
2022/03/12 03:08:50;;;;;;;;;;;2.40;43.20;;;;;;6090756;23;20085;-83
2022/03/12 03:11:40;;;;;;;27.42;16.00;;;2.40;48.90;;;;;;6091571;23;19958;-83
2022/03/12 03:14:27;;;;;;;31.58;16.20;;;2.30;53.50;;;;;;6093728;23;20034;-83
2022/03/12 03:17:15;;;;;;;28.27;16.30;;;2.30;86.30;;;;;;6091387;23;20034;-83
2022/03/12 03:20:03;;;;;;;35.53;18.40;;;2.20;99.90;;;;;;6090840;23;20029;-83
2022/03/12 03:22:55;;;;;;;26.02;15.98;;;2.10;99.90;;;;;;6091329;23;20387;-83
2022/03/12 03:25:42;;;;;;;25.65;15.93;;;2.10;99.90;;;;;;6090690;23;20105;-83
2022/03/12 03:28:30;;;;;;;30.92;17.00;;;2.00;99.90;;;;;;6090401;23;20022;-83
2022/03/12 03:31:20;;;;;;;27.60;16.02;;;2.00;99.90;;;;;;6089914;23;20027;-83
2022/03/12 03:34:10;;;;;;;30.88;16.40;;;2.00;99.90;;;;;;6091522;23;20034;-83
2022/03/12 03:37:00;;;;;;;27.25;17.10;;;2.00;99.90;;;;;;6089655;23;20026;-83
2022/03/12 03:39:47;;;;;;;34.30;17.42;;;1.80;99.90;;;;;;6090219;23;20026;-83
2022/03/12 03:42:34;;;;;;;33.13;17.25;;;1.70;99.90;;;;;;6091416;23;20345;-82
2022/03/12 03:45:23;;;;;;;34.67;18.88;;;1.70;99.90;;;;;;6090350;23;20034;-82
2022/03/12 03:48:15;;;;;;;30.50;16.77;;;1.60;99.90;;;;;;6090933;23;20084;-83
2022/03/12 03:51:04;;;;;;;38.28;18.38;;;1.60;99.90;;;;;;6091846;23;20026;-83
2022/03/12 03:53:57;;;;;;;30.73;17.38;;;1.50;99.90;;;;;;6089518;23;20414;-83
2022/03/12 03:56:44;;;;;;;31.27;17.17;;;1.50;99.90;;;;;;6092274;23;20088;-81
2022/03/12 03:59:31;;;;;;;34.45;17.58;;;1.30;99.90;;;;;;6092730;23;20026;-83
2022/03/12 04:02:19;;;;;;;37.13;19.00;;;1.30;99.90;;;;;;6180378;23;20446;-83
2022/03/12 04:05:06;;;;;;;33.35;17.85;;;1.20;99.90;;;;;;6246638;23;20461;-82
2022/03/12 04:07:54;;;;;;;35.25;16.70;;;1.20;99.90;;;;;;6231393;23;20024;-83
2022/03/12 04:10:43;;;;;;;34.92;18.23;;;1.10;99.90;;;;;;6255875;23;20089;-83
2022/03/12 04:13:32;;;;;;;33.05;17.80;;;1.10;99.90;;;;;;6256935;23;20043;-83
2022/03/12 04:16:22;;;;;;;33.85;19.02;;;1.10;99.90;;;;;;6255888;23;20089;-82
2022/03/12 04:19:13;;;;;;;34.00;18.85;;;1.20;99.90;;;;;;6259873;23;20092;-83
2022/03/12 04:22:01;;;;;;;34.35;19.10;;;1.30;99.90;;;;;;6255971;22;20028;-82
2022/03/12 04:24:49;;;;;;;34.42;18.85;;;1.30;99.90;;;;;;6234103;23;20027;-82
2022/03/12 04:27:42;;;;;;;31.17;17.70;;;1.40;1.00;;;;;;6254328;23;20028;-82
2022/03/12 04:30:33;;;;;;;33.38;18.38;;;1.40;1.00;;;;;;6232917;23;20090;-83
2022/03/12 04:33:23;;;;;;;36.55;19.27;;;1.50;99.90;;;;;;6223346;23;20281;-83
2022/03/12 04:36:11;;;;;;;33.20;18.02;;;1.60;99.90;;;;;;6244164;23;20032;-82
2022/03/12 04:38:58;;;;;;;34.17;19.42;;;1.70;99.90;;;;;;6242934;23;20032;-82
2022/03/12 04:41:48;;;;;;;33.67;18.95;;;1.70;99.90;;;;;;6244445;23;20130;-82
2022/03/12 04:44:35;;;;;;;34.13;19.17;;;1.80;99.90;;;;;;6243674;23;20054;-82
2022/03/12 04:47:24;;;;;;;32.60;18.10;;;1.90;99.90;;;;;;6243885;23;20277;-82
2022/03/12 04:50:12;;;;;;;32.08;18.52;;;1.90;99.90;;;;;;6223333;23;20024;-82
2022/03/12 04:53:01;;;;;;;32.42;18.27;;;2.00;99.90;;;;;;6244943;23;20039;-82
2022/03/12 04:55:49;;;;;;;31.42;18.60;;;2.00;99.90;;;;;;6220705;23;20024;-83
2022/03/12 04:58:39;;;;;;;34.08;20.50;;;2.10;99.90;;;;;;6221708;23;20024;-83
2022/03/12 05:01:27;;;;;;;32.30;18.70;;;2.10;99.90;;;;;;6203296;23;20036;-83
2022/03/12 05:04:15;;;;;;;33.40;19.70;;;2.20;99.90;;;;;;6223417;23;20027;-83
2022/03/12 05:07:14;;;;;;;35.00;18.50;;;2.20;99.90;;;;;;6244110;23;20074;-83
2022/03/12 05:10:01;;;;;;;35.50;19.10;;;2.20;99.90;;;;;;6244773;23;20020;-83
2022/03/12 05:12:48;;;;;;;35.85;19.05;;;2.20;99.90;;;;;;6243431;23;20027;-83
2022/03/12 05:15:41;;;;;;;31.40;18.77;;;2.30;99.90;;;;;;6241629;23;20058;-83
2022/03/12 05:18:30;;;;;;;33.58;17.98;;;2.30;99.90;;;;;;6242137;23;20028;-83
2022/03/12 05:21:18;;;;;;;31.90;18.20;;;2.30;99.90;;;;;;6244762;23;20031;-83
2022/03/12 05:24:05;;;;;;;32.55;17.75;;;2.30;99.90;;;;;;6222892;23;20093;-83
2022/03/12 05:26:56;;;;;;;37.88;18.05;;;2.30;99.90;;;;;;6221171;23;20365;-83
2022/03/12 05:29:46;;;;;;;30.77;17.23;;;2.40;99.90;;;;;;6245062;23;20024;-83
2022/03/12 05:32:33;;;;;;;35.65;17.95;;;2.40;99.90;;;;;;6241750;23;20035;-84
2022/03/12 05:35:23;;;;;;;29.92;18.70;;;2.40;99.90;;;;;;6245131;23;20134;-83
2022/03/12 05:38:13;;;;;;;33.47;19.52;;;2.40;99.90;;;;;;6244310;23;20028;-82
2022/03/12 05:41:11;;;;;;;34.35;20.38;;;2.40;99.90;;;;;;6244399;23;20408;-83
2022/03/12 05:44:03;;;;;;;33.42;19.02;;;2.30;99.90;;;;;;6223136;23;20028;-83
2022/03/12 05:46:50;;;;;;;30.08;18.80;;;2.30;99.90;;;;;;6242287;23;20024;-83
2022/03/12 05:49:37;;;;;;;32.97;19.58;;;2.20;99.90;;;;;;6243942;23;20095;-84
2022/03/12 05:52:29;;;;;;;34.47;19.27;;;2.20;99.90;;;;;;6244127;23;20115;-83
2022/03/12 05:55:22;;;;;;;33.40;19.17;;;2.10;99.90;;;;;;6246786;23;20047;-83
2022/03/12 05:58:12;;;;;;;33.40;17.40;;;2.10;99.90;;;;;;6220994;23;20078;-83
2022/03/12 06:00:59;;;;;;;35.45;18.02;;;2.20;99.90;;;;;;6244756;23;20085;-83
2022/03/12 06:03:47;;;;;;;30.42;18.25;;;2.10;99.90;;;;;;6223115;23;20028;-84
2022/03/12 06:06:35;;;;;;;33.00;19.23;;;2.10;99.90;;;;;;6226007;23;20071;-83
2022/03/12 06:09:22;;;;;;;35.80;20.13;;;2.10;99.90;;;;;;6225302;23;20024;-83
2022/03/12 06:12:20;;;;;;;32.70;18.63;;;2.10;1.00;;;;;;6222506;23;20023;-82
2022/03/12 06:15:09;;;;;;;34.42;19.48;;;2.10;1.00;;;;;;6244607;23;20035;-82
2022/03/12 06:21:51;;;;;;;38.80;21.10;;;2.30;99.90;;;;;;6245389;23;20102;-84
2022/03/12 06:24:40;;;;;;;37.30;20.83;;;2.30;1.00;;;;;;6226366;23;20024;-86
2022/03/12 06:27:32;;;;;;;38.42;21.17;;;2.20;1.00;;;;;;6248446;23;20035;-84
2022/03/12 06:30:29;;;;;;;29.42;16.65;;;2.10;16.00;;;;;;6245749;23;20031;-87
2022/03/12 06:33:19;;;;;;;32.67;20.33;;;2.20;99.90;;;;;;6227287;23;20028;-85
2022/03/12 06:36:13;;;;;;;35.38;19.25;;;2.30;99.90;;;;;;6223848;23;20336;-86
2022/03/12 06:39:02;;;;;;;34.70;19.60;;;2.40;1.00;;;;;;6247561;23;20031;-85
2022/03/12 06:41:53;;;;;;;41.60;18.90;;;2.60;99.90;;;;;;6243642;23;20032;-81
2022/03/12 06:53:32;;;;;;;36.25;19.15;;;3.30;99.90;;;;;;6245009;23;20261;-82
2022/03/12 07:01:02;;;;;;;33.55;19.08;;;3.80;99.90;;;;;;6244261;23;20395;-83
2022/03/12 07:08:31;;;;;;;35.55;19.08;;;4.40;99.90;;;;;;6097204;23;20109;-82
2022/03/12 07:11:32;;;;;;;30.67;19.02;;;4.60;99.90;;;;;;6094451;23;20102;-83
2022/03/12 07:19:32;;;;;;;32.75;18.88;;;5.10;99.90;;;;;;6037390;23;20046;-82
2022/03/12 07:23:20;;;;;;;34.95;18.35;;;5.30;99.90;;;;;;5923709;24;20099;-83
2022/03/12 07:26:07;;;;;;;32.38;17.50;;;5.40;99.90;;;;;;5906123;24;20077;-84
2022/03/12 07:42:17;;;;;;;34.85;17.83;;;5.80;99.90;;;;;;5904861;24;20064;-82
2022/03/12 07:53:44;;;;;;;29.40;16.75;;;7.30;1.00;;;;;;6008665;23;20431;-83
2022/03/12 07:57:17;;;;;;;24.42;16.13;;;7.60;27.00;;;;;;6074715;23;20106;-83
2022/03/12 08:00:10;;;;;;;24.47;17.27;;;7.80;46.40;;;;;;6194388;23;20118;-82
2022/03/12 08:02:58;;;;;;;27.83;17.70;;;8.30;58.10;;;;;;6244622;23;20024;-82
2022/03/12 08:05:47;;;;;;;27.38;17.63;;;8.40;59.40;;;;;;6221860;23;20477;-82
2022/03/12 08:12:38;;;;;;;28.63;17.48;;;8.80;59.00;;;;;;6118382;23;20053;-81
2022/03/12 08:19:33;;;;;;;36.38;18.50;;;9.30;58.10;;;;;;6123406;23;20141;-82
2022/03/12 08:22:23;;;;;;;38.15;18.58;;;10.00;56.10;;;;;;6125606;23;20040;-82
2022/03/12 08:25:16;;;;;;;29.70;17.17;;;10.10;56.80;;;;;;6125109;23;20108;-83
2022/03/12 08:28:04;;;;;;;28.63;16.98;;;10.50;56.90;;;;;;6105186;23;20065;-84
2022/03/12 08:30:53;;;;;;;32.15;17.73;;;10.90;54.20;;;;;;6123119;23;20131;-83
2022/03/12 08:33:43;;;;;;;24.23;16.30;;;10.80;53.60;;;;;;6125581;23;20059;-82
2022/03/12 08:36:30;;;;;;;26.10;16.08;;;11.30;53.50;;;;;;6104945;23;20512;-83
2022/03/12 08:39:21;;;;;;;24.88;16.05;;;12.10;51.10;;;;;;6107331;23;20303;-84
2022/03/12 08:42:11;;;;;;;22.08;15.82;;;12.30;49.30;;;;;;6126117;23;20038;-82
2022/03/12 08:44:58;;;;;;;25.38;15.45;;;12.90;49.40;;;;;;6125538;23;20030;-84
2022/03/12 08:47:45;;;;;;;21.15;15.30;;;13.20;47.30;;;;;;6171435;23;20023;-83
2022/03/12 08:50:34;;;;;;;23.08;15.70;;;13.80;47.30;;;;;;6247951;23;20031;-84
2022/03/12 08:53:27;;;;;;;23.20;15.30;;;14.40;46.30;;;;;;6248926;23;20024;-84
2022/03/12 08:56:15;;;;;;;22.50;15.77;;;15.20;41.30;;;;;;6248356;23;20034;-83
2022/03/12 08:59:03;;;;;;;25.67;16.20;;;15.60;41.80;;;;;;6246416;23;20027;-84
2022/03/12 09:01:53;;;;;;;23.48;15.82;;;15.70;41.30;;;;;;6248116;23;20043;-84
2022/03/12 09:04:43;;;;;;;28.60;16.13;;;16.00;40.90;;;;;;6251005;23;20083;-82
2022/03/12 09:07:31;;;;;;;23.55;16.02;;;15.90;40.10;;;;;;6253155;23;20024;-83
2022/03/12 09:10:21;;;;;;;24.45;16.08;;;15.10;41.40;;;;;;6249649;23;20031;-84
2022/03/12 09:13:12;;;;;;;23.13;15.48;;;14.80;42.60;;;;;;6250528;23;20020;-83
2022/03/12 09:15:59;;;;;;;26.52;16.00;;;15.40;42.50;;;;;;6249339;23;20028;-82
2022/03/12 09:18:47;;;;;;;25.27;16.77;;;15.80;40.40;;;;;;6226938;23;20046;-82
2022/03/12 09:21:35;;;;;;;26.05;16.10;;;15.90;39.30;;;;;;6230193;23;20039;-82
2022/03/12 09:24:22;;;;;;;27.27;16.27;;;16.00;40.60;;;;;;6254003;22;20088;-83
2022/03/12 09:27:12;;;;;;;29.73;16.60;;;16.40;40.10;;;;;;6228169;23;20031;-82
2022/03/12 09:30:03;;;;;;;22.95;15.77;;;16.90;37.60;;;;;;6243925;23;20071;-82
2022/03/12 09:32:50;;;;;;;22.63;15.98;;;17.20;38.10;;;;;;6247212;23;20089;-82
2022/03/12 09:35:40;;;;;;;22.20;16.77;;;17.70;37.90;;;;;;6248208;23;20031;-83
2022/03/12 09:38:28;;;;;;;26.00;16.45;;;18.40;36.40;;;;;;6235203;23;20024;-82
2022/03/12 09:41:15;;;;;;;20.50;15.95;;;18.90;35.60;;;;;;6228233;23;20364;-82
2022/03/12 09:44:03;;;;;;;23.85;17.23;;;18.70;34.70;;;;;;6251588;23;20024;-83
2022/03/12 09:46:50;;;;;;;22.15;15.32;;;18.30;35.30;;;;;;6248673;23;20020;-83
2022/03/12 09:49:38;;;;;;;23.63;15.82;;;18.40;36.60;;;;;;6244547;23;20039;-82
2022/03/12 09:52:29;;;;;;;22.90;15.90;;;18.50;37.30;;;;;;6223219;23;20084;-83
2022/03/12 09:55:19;;;;;;;26.83;15.68;;;18.80;35.40;;;;;;6246668;23;20093;-82
2022/03/12 09:58:12;;;;;;;27.33;15.25;;;18.50;37.00;;;;;;6224644;23;20065;-82
2022/03/12 10:01:17;;;;;;;;;;;18.50;36.40;;;;;;6225836;23;20028;-83
2022/03/12 10:04:05;;;;;;;25.75;17.58;;;17.90;37.70;;;;;;6247714;23;19930;-84
2022/03/12 10:06:56;;;;;;;23.67;15.57;;;16.90;39.50;;;;;;6224127;23;20028;-82
2022/03/12 10:09:48;;;;;;;24.45;15.15;;;16.90;40.00;;;;;;6223732;23;20083;-81
2022/03/12 10:12:35;;;;;;;27.85;16.48;;;16.70;40.70;;;;;;6244088;23;20051;-82
2022/03/12 10:15:27;;;;;;;21.38;15.30;;;17.30;40.70;;;;;;6243841;23;20412;-83
2022/03/12 10:18:17;;;;;;;22.80;14.48;;;17.60;39.50;;;;;;6223556;23;20086;-84
2022/03/12 10:21:05;;;;;;;24.05;15.57;;;17.50;40.80;;;;;;6221591;23;20024;-83
2022/03/12 10:23:54;;;;;;;24.23;15.15;;;17.50;39.60;;;;;;6246069;23;20038;-84
2022/03/12 10:26:46;;;;;;;22.33;14.57;;;17.70;39.70;;;;;;6241921;23;20035;-84
2022/03/12 10:29:35;;;;;;;22.83;14.63;;;18.20;38.90;;;;;;6245472;23;20758;-83
2022/03/12 10:32:27;;;;;;;27.38;14.00;;;18.50;37.60;;;;;;6243185;23;20020;-83
2022/03/12 10:35:21;;;;;;;20.65;14.65;;;19.00;37.00;;;;;;6244185;23;20109;-82
2022/03/12 10:38:14;;;;;;;22.08;15.65;;;19.10;38.00;;;;;;6222332;23;20028;-83
2022/03/12 10:41:01;;;;;;;20.33;13.93;;;18.90;37.60;;;;;;6244159;23;20028;-85
2022/03/12 10:43:53;;;;;;;28.13;15.05;;;18.60;38.30;;;;;;6244565;23;20028;-83
2022/03/12 10:46:41;;;;;;;25.20;16.20;;;18.00;38.10;;;;;;6245193;23;20070;-82
2022/03/12 10:49:30;;;;;;;22.65;14.77;;;16.50;39.70;;;;;;6242675;23;20419;-83
2022/03/12 10:52:19;;;;;;;24.38;15.63;;;16.50;41.70;;;;;;6243747;23;20024;-85
2022/03/12 10:55:17;;;;;;;22.67;15.52;;;16.60;41.10;;;;;;6245685;23;20700;-84
2022/03/12 10:58:13;;;;;;;22.42;14.45;;;16.70;41.40;;;;;;6245544;23;20420;-83
2022/03/12 11:01:02;;;;;;;23.63;14.57;;;17.00;40.30;;;;;;6245892;23;20055;-85
2022/03/12 11:03:51;;;;;;;20.90;14.07;;;17.60;39.50;;;;;;6244834;23;20304;-82
2022/03/12 11:06:41;;;;;;;21.17;14.48;;;18.40;40.50;;;;;;6246885;23;20095;-84
2022/03/12 11:09:36;;;;;;;21.73;14.60;;;19.20;37.90;;;;;;6245927;23;20038;-84
2022/03/12 11:12:30;;;;;;;20.85;14.68;;;18.50;37.00;;;;;;6224155;23;20024;-83
2022/03/12 11:15:20;;;;;;;21.30;13.65;;;17.90;38.50;;;;;;6245818;23;20024;-82
2022/03/12 11:18:13;;;;;;;20.88;13.77;;;17.70;39.30;;;;;;6224790;23;20023;-85
2022/03/12 11:21:01;;;;;;;24.98;13.88;;;18.00;39.30;;;;;;6224345;23;20043;-82
2022/03/12 11:23:51;;;;;;;17.60;13.00;;;18.10;38.90;;;;;;6244759;23;20028;-83
2022/03/12 11:26:48;;;;;;;20.05;13.90;;;18.50;38.90;;;;;;6225617;23;20016;-83
2022/03/12 11:29:39;;;;;;;26.85;13.98;;;19.40;37.50;;;;;;6245443;23;20028;-82
2022/03/12 11:32:30;;;;;;;19.40;13.98;;;19.80;35.80;;;;;;6222357;23;20288;-83
2022/03/12 11:35:21;;;;;;;19.33;14.05;;;20.00;35.60;;;;;;6246586;23;20411;-83
2022/03/12 11:38:12;;;;;;;21.00;13.40;;;19.80;35.50;;;;;;6244356;23;20158;-84
2022/03/12 11:41:09;;;;;;;18.48;13.63;;;19.50;36.40;;;;;;6245839;23;20028;-86
2022/03/12 11:44:01;;;;;;;20.50;13.15;;;19.20;36.80;;;;;;6222463;23;20035;-84
2022/03/12 11:46:48;;;;;;;16.38;12.27;;;19.10;37.50;;;;;;6224087;23;20371;-83
2022/03/12 11:49:38;;;;;;;21.27;13.35;;;19.20;38.80;;;;;;6247933;22;20023;-82
2022/03/12 11:52:26;;;;;;;22.40;14.40;;;19.10;38.20;;;;;;6245834;23;20032;-84
2022/03/12 11:55:17;;;;;;;19.80;13.00;;;19.50;36.80;;;;;;6221938;23;20133;-83
2022/03/12 11:58:07;;;;;;;19.80;12.53;;;19.80;36.60;;;;;;6216402;23;20028;-81
2022/03/12 12:00:54;;;;;;;18.05;12.25;;;19.50;37.60;;;;;;6218191;23;20404;-82
2022/03/12 12:03:43;;;;;;;15.35;11.50;;;19.20;39.20;;;;;;6241004;23;20627;-83
2022/03/12 12:06:31;;;;;;;18.20;11.40;;;19.10;40.20;;;;;;6222758;23;20020;-83
2022/03/12 12:09:18;;;;;;;20.10;13.18;;;20.00;38.60;;;;;;6243069;23;20031;-83
2022/03/12 12:12:11;;;;;;;15.13;11.30;;;20.70;36.50;;;;;;6243953;23;20024;-83
2022/03/12 12:15:01;;;;;;;23.95;13.07;;;20.20;37.30;;;;;;6245283;23;20064;-83
2022/03/12 12:17:48;;;;;;;22.33;13.30;;;20.10;37.00;;;;;;6245701;23;20027;-83
2022/03/12 12:20:37;;;;;;;19.42;13.27;;;20.20;36.70;;;;;;6246426;23;20032;-84
2022/03/12 12:23:27;;;;;;;18.83;12.55;;;20.40;36.40;;;;;;6246001;23;20348;-84
2022/03/12 12:26:14;;;;;;;18.15;11.32;;;20.40;36.70;;;;;;6223350;23;20348;-82
2022/03/12 12:29:01;;;;;;;20.52;12.43;;;20.90;36.60;;;;;;6223661;23;20024;-82
2022/03/12 12:31:49;;;;;;;16.85;11.20;;;21.20;35.80;;;;;;6223288;23;20036;-82
2022/03/12 12:34:56;;;;;;;21.50;11.32;;;21.00;35.80;;;;;;6244648;23;20101;-83
2022/03/12 12:37:57;;;;;;;21.25;11.32;;;20.50;36.10;;;;;;6246547;23;20086;-84
2022/03/12 12:40:52;;;;;;;16.23;11.63;;;20.40;37.20;;;;;;6223314;23;20024;-85
2022/03/12 12:44:06;;;;;;;20.10;11.63;;;21.00;36.50;;;;;;6220771;23;20023;-83
2022/03/12 12:46:56;;;;;;;15.13;10.75;;;21.10;36.40;;;;;;6245870;23;20111;-83
2022/03/12 12:49:53;;;;;;;16.38;11.32;;;22.00;35.30;;;;;;6244625;23;20039;-83
2022/03/12 12:53:09;;;;;;;20.83;11.70;;;23.10;32.90;;;;;;6244977;23;20028;-83
2022/03/12 12:56:31;;;;;;;16.35;10.57;;;22.60;32.30;;;;;;6222611;23;20114;-83
2022/03/12 12:59:18;;;;;;;12.82;10.45;;;21.70;35.10;;;;;;6165364;23;20020;-82
2022/03/12 13:02:06;;;;;;;18.75;11.48;;;21.40;35.40;;;;;;6242854;23;20032;-83
2022/03/12 13:05:08;;;;;;;16.75;11.75;;;21.70;36.00;;;;;;6246791;22;20098;-83
2022/03/12 13:08:00;;;;;;;18.08;11.82;;;21.40;35.00;;;;;;6242464;23;20439;-84
2022/03/12 13:10:52;;;;;;;18.13;12.35;;;20.70;36.70;;;;;;6245725;23;20028;-83
2022/03/12 13:13:39;;;;;;;18.50;12.18;;;20.40;37.10;;;;;;6243143;23;20028;-83
2022/03/12 13:16:27;;;;;;;25.52;12.75;;;20.60;36.50;;;;;;6222187;23;20196;-81
2022/03/12 13:19:44;;;;;;;18.58;12.75;;;20.80;37.00;;;;;;6220499;23;20047;-82
2022/03/12 13:22:43;;;;;;;18.27;12.02;;;20.30;36.30;;;;;;6223993;23;20023;-83
2022/03/12 13:25:47;;;;;;;15.95;11.43;;;20.30;37.10;;;;;;6246953;22;20035;-82
2022/03/12 13:28:51;;;;;;;16.60;10.50;;;20.70;37.20;;;;;;6246042;23;20031;-83
2022/03/12 13:31:46;;;;;;;13.90;11.52;;;21.10;36.20;;;;;;6246897;23;20110;-83
2022/03/12 13:34:36;;;;;;;17.20;12.27;;;21.40;35.50;;;;;;6246671;22;20034;-84
2022/03/12 13:37:24;;;;;;;17.13;12.00;;;21.50;35.20;;;;;;6222054;23;20024;-84
2022/03/12 13:40:13;;;;;;;19.50;11.77;;;21.00;35.00;;;;;;6243054;23;20039;-84
2022/03/12 13:43:06;;;;;;;14.25;10.98;;;21.00;36.30;;;;;;6220220;23;20320;-84
2022/03/12 13:46:03;;;;;;;17.20;10.88;;;21.30;36.30;;;;;;6244995;23;20024;-81
2022/03/12 13:49:09;;;;;;;18.67;11.23;;;21.10;35.70;;;;;;6224579;23;20020;-83
2022/03/12 13:51:57;;;;;;;12.00;9.82;;;20.20;36.80;;;;;;6225386;23;20131;-84
2022/03/12 13:54:47;;;;;;;11.05;9.65;;;20.00;38.40;;;;;;6224942;23;20020;-86
2022/03/12 13:57:40;;;;;;;15.73;9.93;;;19.70;38.70;;;;;;6244826;23;20093;-84
2022/03/12 14:00:35;;;;;;;12.43;9.00;;;19.40;39.20;;;;;;6244283;23;20044;-84
2022/03/12 14:03:31;;;;;;;14.00;9.18;;;19.80;39.00;;;;;;6244656;23;20042;-85
2022/03/12 14:06:28;;;;;;;12.40;9.27;;;19.80;38.40;;;;;;6226885;23;20039;-84
2022/03/12 14:09:25;;;;;;;18.90;12.38;;;19.40;38.40;;;;;;6244509;23;20043;-84
2022/03/12 14:12:24;;;;;;;16.05;10.27;;;19.20;39.30;;;;;;6245740;23;20032;-84
2022/03/12 14:15:19;;;;;;;18.80;11.35;;;18.60;40.70;;;;;;6246085;23;20105;-84
2022/03/12 14:18:07;;;;;;;15.98;11.30;;;18.30;40.40;;;;;;6245875;23;20021;-83
2022/03/12 14:20:58;;;;;;;16.63;10.32;;;18.10;40.90;;;;;;6243383;23;20035;-88
2022/03/12 14:23:48;;;;;;;17.27;11.95;;;18.80;40.70;;;;;;6244370;23;20096;-86
2022/03/12 14:26:48;;;;;;;17.92;11.57;;;18.70;39.10;;;;;;6224825;23;20030;-85
2022/03/12 14:29:41;;;;;;;20.33;12.23;;;18.20;40.30;;;;;;6248180;23;20020;-85
2022/03/12 14:32:29;;;;;;;18.00;11.20;;;18.20;41.10;;;;;;6248466;23;20082;-86
2022/03/12 14:35:20;;;;;;;16.63;11.25;;;18.10;40.50;;;;;;6246833;23;20347;-84
2022/03/12 14:38:07;;;;;;;19.27;11.77;;;17.90;41.40;;;;;;6225186;23;20028;-83
2022/03/12 14:40:55;;;;;;;17.33;11.80;;;18.00;41.20;;;;;;6225215;23;20076;-84
2022/03/12 14:43:53;;;;;;;23.63;12.30;;;18.10;41.40;;;;;;6225311;23;20023;-83
2022/03/12 14:46:45;;;;;;;19.08;12.48;;;18.20;41.20;;;;;;6239958;23;20028;-82
2022/03/12 14:49:35;;;;;;;17.08;11.80;;;18.10;41.10;;;;;;6240890;23;20497;-82
2022/03/12 14:52:29;;;;;;;16.27;11.38;;;17.90;41.90;;;;;;6240510;23;20760;-83
2022/03/12 14:55:17;;;;;;;18.58;11.75;;;18.00;41.30;;;;;;6248510;23;20024;-82
2022/03/12 14:58:07;;;;;;;17.90;11.25;;;18.30;40.80;;;;;;6223358;23;20084;-82
2022/03/12 15:01:00;;;;;;;17.58;11.32;;;18.10;41.80;;;;;;6249422;23;20039;-83
2022/03/12 15:03:53;;;;;;;15.18;11.27;;;18.50;40.40;;;;;;6252694;23;20066;-85
2022/03/12 15:06:45;;;;;;;19.65;11.70;;;18.70;40.30;;;;;;6248535;23;20024;-81
2022/03/12 15:09:33;;;;;;;14.80;10.93;;;18.60;40.10;;;;;;6205550;23;20043;-80
2022/03/12 15:12:34;;;;;;;15.77;10.63;;;18.90;40.10;;;;;;6226862;23;20020;-81
2022/03/12 15:15:26;;;;;;;19.08;11.65;;;19.20;39.90;;;;;;6245106;23;20024;-84
2022/03/12 15:18:18;;;;;;;16.13;10.80;;;19.60;38.90;;;;;;6245840;23;20102;-85
2022/03/12 15:21:14;;;;;;;17.80;11.45;;;19.30;38.90;;;;;;6247881;23;20020;-82
2022/03/12 15:24:11;;;;;;;16.92;11.38;;;19.50;38.60;;;;;;6251928;23;20081;-82
2022/03/12 15:27:09;;;;;;;19.85;12.25;;;19.30;38.70;;;;;;6251617;23;20075;-83
2022/03/12 15:30:03;;;;;;;16.92;12.07;;;19.20;38.80;;;;;;6253642;23;20024;-84
2022/03/12 15:32:52;;;;;;;17.88;11.55;;;18.80;38.60;;;;;;6250688;23;20050;-83